Terminal Aerodrome Forecast
Issued by NWS

Home | Current Version | Previous Version | Graphics & Text | Print | Product List | Glossary On
Versions: 1 2 3 4 5 6 7 8 9 10 11 12 13 14 15 16 17 18
000
FTUS45 KGGW 201253 AAA
TAFOLF
TAF AMD
KOLF 201253Z 2013/2112 23006KT 6SM BR VCSH OVC090
      TEMPO 2013/2014 -FZRASN
     FM201400 26007KT P6SM SCT100
     FM201700 26008KT P6SM FEW015
     FM202200 VRB05KT P6SM SCT070
     FM210600 19004KT P6SM BKN045 WS020/26035KT
     FM210900 24006KT P6SM SCT060 WS020/27040KT=

USA.gov is the U.S. government's official web portal to all federal, state and local government web resources and services.